createdAt,value
2023-03-19T00:00:35.135Z,101043.47
2023-03-19T00:03:38.183Z,101039.38
2023-03-19T00:06:41.525Z,101045.34
2023-03-19T00:09:44.964Z,101042.31
2023-03-19T00:12:48.109Z,101042.00
2023-03-19T00:15:50.885Z,101041.38
2023-03-19T00:18:53.909Z,101043.59
2023-03-19T00:21:57.048Z,101042.75
2023-03-19T00:24:59.819Z,101052.47
2023-03-19T00:28:02.790Z,101062.13
2023-03-19T00:31:11.733Z,101066.53
2023-03-19T00:34:14.641Z,101061.16
2023-03-19T00:37:17.706Z,101075.66
2023-03-19T00:40:21.007Z,101061.94
2023-03-19T00:43:23.963Z,101057.66
2023-03-19T00:46:27.717Z,101054.19
2023-03-19T00:49:30.716Z,101048.69
2023-03-19T00:52:33.554Z,101050.34
2023-03-19T00:55:36.465Z,101046.00
2023-03-19T00:58:41.256Z,101036.47
2023-03-19T01:01:44.323Z,101033.28
2023-03-19T01:04:50.882Z,101034.78
2023-03-19T01:07:53.949Z,101022.53
2023-03-19T01:10:56.895Z,101033.56
2023-03-19T01:13:59.800Z,101025.84
2023-03-19T01:17:02.652Z,101022.19
2023-03-19T01:20:09.138Z,101030.22
2023-03-19T01:23:12.204Z,101018.66
2023-03-19T01:26:15.517Z,101015.06
2023-03-19T01:29:18.730Z,101020.41
2023-03-19T01:32:21.697Z,101025.00
2023-03-19T01:35:48.361Z,101017.22
2023-03-19T01:38:52.739Z,101005.91
2023-03-19T01:41:55.652Z,101013.38
2023-03-19T01:45:52.968Z,101007.63
2023-03-19T01:49:30.828Z,101007.81
2023-03-19T01:53:00.383Z,101009.19
2023-03-19T01:56:27.180Z,101008.75
2023-03-19T01:59:42.042Z,101011.00
2023-03-19T02:03:01.034Z,101009.59
2023-03-19T02:06:36.812Z,101007.09
2023-03-19T02:09:41.313Z,100998.31
2023-03-19T02:12:44.070Z,100997.72
2023-03-19T02:15:47.206Z,101000.09
2023-03-19T02:18:50.728Z,101001.59
2023-03-19T02:21:54.909Z,100996.09
2023-03-19T02:24:58.248Z,101003.41
2023-03-19T02:28:02.935Z,100991.03
2023-03-19T02:31:07.545Z,100988.56
2023-03-19T02:34:10.820Z,100987.03
2023-03-19T02:37:19.803Z,100980.84
2023-03-19T02:40:31.293Z,100974.91
2023-03-19T02:43:38.065Z,100981.25
2023-03-19T02:46:41.353Z,100972.88
2023-03-19T02:49:44.495Z,100979.06
2023-03-19T02:52:47.598Z,100973.56
2023-03-19T02:55:50.834Z,100981.81
2023-03-19T02:58:54.142Z,100979.34
2023-03-19T03:01:57.127Z,100977.41
2023-03-19T03:04:59.937Z,100979.47
2023-03-19T03:08:04.369Z,100989.38
2023-03-19T03:11:07.825Z,100992.81
2023-03-19T03:14:11.284Z,100987.06
2023-03-19T03:17:14.615Z,100991.88
2023-03-19T03:20:18.096Z,100989.13
2023-03-19T03:23:22.193Z,100999.47
2023-03-19T03:26:25.470Z,100996.28
2023-03-19T03:29:28.512Z,101005.09
2023-03-19T03:32:31.358Z,101007.56
2023-03-19T03:35:34.180Z,101010.59
2023-03-19T03:38:37.186Z,101011.28
2023-03-19T03:41:40.313Z,101015.00
2023-03-19T03:44:43.319Z,101032.13
2023-03-19T03:47:46.661Z,101026.50
2023-03-19T03:50:49.684Z,101031.91
2023-03-19T03:53:56.465Z,101017.44
2023-03-19T03:57:01.394Z,101014.13
2023-03-19T04:00:06.334Z,101013.47
2023-03-19T04:03:16.031Z,101025.69
2023-03-19T04:06:21.903Z,101022.25
2023-03-19T04:09:34.058Z,101021.03
2023-03-19T04:12:38.226Z,101023.06
2023-03-19T04:15:44.835Z,101023.06
2023-03-19T04:18:49.011Z,101026.63
2023-03-19T04:21:51.921Z,101028.03
2023-03-19T04:24:54.952Z,101033.25
2023-03-19T04:27:58.750Z,101027.19
2023-03-19T04:31:06.581Z,101022.25
2023-03-19T04:34:12.482Z,101025.97
2023-03-19T04:37:15.351Z,101021.16
2023-03-19T04:40:23.816Z,101024.44
2023-03-19T04:43:27.470Z,101017.31
2023-03-19T04:46:31.402Z,101015.53
2023-03-19T04:49:34.181Z,101011.25
2023-03-19T04:52:37.688Z,101009.06
2023-03-19T04:55:41.219Z,101014.72
2023-03-19T04:58:50.721Z,101010.72
2023-03-19T05:01:54.205Z,101010.84
2023-03-19T05:04:58.864Z,101007.00
2023-03-19T05:08:02.136Z,101008.53
2023-03-19T05:11:05.405Z,101008.53
2023-03-19T05:14:18.683Z,101019.94
2023-03-19T05:17:36.029Z,101018.44
2023-03-19T05:20:55.869Z,101010.59
2023-03-19T05:24:00.688Z,101020.47
2023-03-19T05:27:05.970Z,101015.25
2023-03-19T05:30:21.380Z,101016.34
2023-03-19T05:33:36.983Z,101024.19
2023-03-19T05:36:40.366Z,101027.19
2023-03-19T05:39:54.642Z,101026.38
2023-03-19T05:42:57.533Z,101027.59
2023-03-19T05:46:03.572Z,101025.94
2023-03-19T05:49:09.702Z,101027.19
2023-03-19T05:52:12.759Z,101030.34
2023-03-19T05:55:15.777Z,101033.50
2023-03-19T05:58:26.403Z,101029.09
2023-03-19T06:01:30.462Z,101031.97
2023-03-19T06:04:35.216Z,101033.31
2023-03-19T06:07:38.625Z,101029.19
2023-03-19T06:10:47.336Z,101031.09
2023-03-19T06:13:50.609Z,101032.84
2023-03-19T06:16:54.431Z,101037.97
2023-03-19T06:19:57.206Z,101041.34
2023-03-19T06:23:00.659Z,101038.41
2023-03-19T06:26:04.806Z,101040.53
2023-03-19T06:29:12.515Z,101037.06
2023-03-19T06:32:17.111Z,101052.78
2023-03-19T06:35:19.915Z,101055.13
2023-03-19T06:38:25.153Z,101060.06
2023-03-19T06:41:28.064Z,101052.47
2023-03-19T06:44:38.223Z,101053.72
2023-03-19T06:47:42.059Z,101054.34
2023-03-19T06:50:47.659Z,101055.16
2023-03-19T06:53:50.582Z,101061.06
2023-03-19T06:56:53.355Z,101058.88
2023-03-19T06:59:56.486Z,101051.53
2023-03-19T07:03:00.122Z,101055.03
2023-03-19T07:06:03.002Z,101054.19
2023-03-19T07:09:06.297Z,101058.91
2023-03-19T07:12:09.336Z,101057.72
2023-03-19T07:15:12.418Z,101058.78
2023-03-19T07:18:15.501Z,101055.94
2023-03-19T07:21:18.429Z,101056.66
2023-03-19T07:24:21.401Z,101061.94
2023-03-19T07:27:24.293Z,101059.00
2023-03-19T07:30:27.177Z,101053.25
2023-03-19T07:33:30.042Z,101068.38
2023-03-19T07:36:33.038Z,101068.09
2023-03-19T07:39:35.820Z,101066.94
2023-03-19T07:42:39.116Z,101065.28
2023-03-19T07:45:41.965Z,101064.91
2023-03-19T07:48:44.915Z,101064.94
2023-03-19T07:51:47.700Z,101072.97
2023-03-19T07:54:51.019Z,101071.38
2023-03-19T07:57:53.834Z,101073.56
2023-03-19T08:00:56.750Z,101065.47
2023-03-19T08:03:59.675Z,101063.22
2023-03-19T08:07:02.497Z,101054.84
2023-03-19T08:10:06.347Z,101055.84
2023-03-19T08:13:09.192Z,101050.03
2023-03-19T08:16:12.221Z,101056.88
2023-03-19T08:19:15.645Z,101058.41
2023-03-19T08:22:18.479Z,101060.03
2023-03-19T08:25:21.677Z,101056.78
2023-03-19T08:28:24.623Z,101054.91
2023-03-19T08:31:27.746Z,101053.34
2023-03-19T08:34:31.088Z,101052.75
2023-03-19T08:37:33.909Z,101062.75
2023-03-19T08:40:36.990Z,101051.13
2023-03-19T08:43:40.003Z,101070.59
2023-03-19T08:46:42.949Z,101057.75
2023-03-19T08:49:45.849Z,101062.63
2023-03-19T08:52:48.822Z,101070.28
2023-03-19T08:55:53.906Z,101065.38
2023-03-19T08:58:57.702Z,101064.44
2023-03-19T09:02:01.187Z,101059.94
2023-03-19T09:05:05.807Z,101048.47
2023-03-19T09:08:09.214Z,101054.56
2023-03-19T09:11:14.733Z,101053.34
2023-03-19T09:14:20.023Z,101056.03
2023-03-19T09:17:22.805Z,101062.63
2023-03-19T09:20:25.876Z,101051.97
2023-03-19T09:23:28.970Z,101050.38
2023-03-19T09:26:32.272Z,101037.84
2023-03-19T09:29:35.052Z,101038.53
2023-03-19T09:32:38.053Z,101037.81
2023-03-19T09:35:41.178Z,101044.38
2023-03-19T09:38:43.963Z,101037.94
2023-03-19T09:42:01.076Z,101038.63
2023-03-19T09:45:04.762Z,101036.19
2023-03-19T09:48:18.862Z,101039.03
2023-03-19T09:51:30.764Z,101037.44
2023-03-19T09:54:39.709Z,101044.84
2023-03-19T09:57:42.849Z,101039.16
2023-03-19T10:00:52.494Z,101028.66
2023-03-19T10:04:07.072Z,101023.78
2023-03-19T10:07:33.458Z,101021.84
2023-03-19T10:11:07.671Z,101008.09
2023-03-19T10:14:35.289Z,100996.44
2023-03-19T10:18:02.952Z,101004.50
2023-03-19T10:21:11.666Z,100993.59
2023-03-19T10:24:40.742Z,100987.06
2023-03-19T10:27:47.051Z,100989.97
2023-03-19T10:31:03.655Z,100994.06
2023-03-19T10:34:32.869Z,100990.63
2023-03-19T10:37:36.756Z,100988.56
2023-03-19T10:40:50.721Z,100980.66
2023-03-19T10:43:58.830Z,100983.28
2023-03-19T10:47:13.958Z,100977.63
2023-03-19T10:50:19.638Z,100971.09
2023-03-19T10:53:35.688Z,100969.47
2023-03-19T10:56:47.248Z,100968.66
2023-03-19T10:59:50.270Z,100972.41
2023-03-19T11:02:55.465Z,100965.59
2023-03-19T11:06:19.337Z,100955.47
2023-03-19T11:09:28.642Z,100958.09
2023-03-19T11:12:37.446Z,100951.00
2023-03-19T11:15:41.038Z,100948.28
2023-03-19T11:18:48.669Z,100947.94
2023-03-19T11:22:20.728Z,100934.34
2023-03-19T11:25:36.910Z,100931.66
2023-03-19T11:28:42.942Z,100919.22
2023-03-19T11:32:21.114Z,100920.25
2023-03-19T11:35:51.148Z,100908.53
2023-03-19T11:39:25.870Z,100909.91
2023-03-19T11:42:54.906Z,100900.03
2023-03-19T11:46:22.643Z,100889.56
2023-03-19T11:49:46.819Z,100887.88
2023-03-19T11:53:02.055Z,100894.56
2023-03-19T11:56:33.264Z,100891.59
2023-03-19T11:59:45.259Z,100876.91
2023-03-19T12:03:06.972Z,100885.44
2023-03-19T12:06:50.981Z,100872.88
2023-03-19T12:10:16.033Z,100885.25
2023-03-19T12:13:31.761Z,100877.25
2023-03-19T12:16:45.728Z,100870.69
2023-03-19T12:20:16.475Z,100870.06
2023-03-19T12:23:35.341Z,100859.50
2023-03-19T12:27:16.157Z,100843.91
2023-03-19T12:30:48.458Z,100833.56
2023-03-19T12:34:09.489Z,100833.13
2023-03-19T12:37:57.422Z,100816.09
2023-03-19T12:41:07.839Z,100810.06
2023-03-19T12:44:19.413Z,100808.63
2023-03-19T12:47:31.730Z,100809.97
2023-03-19T12:50:38.121Z,100805.25
2023-03-19T12:54:03.775Z,100800.97
2023-03-19T12:57:09.525Z,100793.34
2023-03-19T13:00:46.353Z,100792.28
2023-03-19T13:03:52.617Z,100789.94
2023-03-19T13:07:19.964Z,100787.47
2023-03-19T13:10:23.206Z,100791.44
2023-03-19T13:13:36.725Z,100785.44
2023-03-19T13:16:42.434Z,100778.81
2023-03-19T13:19:51.263Z,100765.63
2023-03-19T13:22:59.450Z,100773.13
2023-03-19T13:26:06.548Z,100772.38
2023-03-19T13:29:19.300Z,100774.44
2023-03-19T13:32:27.405Z,100774.75
2023-03-19T13:35:39.919Z,100770.75
2023-03-19T13:38:51.704Z,100775.22
2023-03-19T13:41:59.227Z,100767.59
2023-03-19T13:45:23.635Z,100766.13
2023-03-19T13:48:30.254Z,100766.00
2023-03-19T13:51:35.761Z,100765.81
2023-03-19T13:54:41.067Z,100754.19
2023-03-19T13:58:12.486Z,100751.72
2023-03-19T14:01:30.375Z,100748.19
2023-03-19T14:04:37.485Z,100744.81
2023-03-19T14:07:42.718Z,100742.56
2023-03-19T14:10:55.046Z,100727.63
2023-03-19T14:14:02.649Z,100738.91
2023-03-19T14:17:05.865Z,100729.06
2023-03-19T14:20:12.768Z,100733.38
2023-03-19T14:23:25.108Z,100741.75
2023-03-19T14:26:43.482Z,100736.28
2023-03-19T14:29:47.440Z,100726.50
2023-03-19T14:32:52.414Z,100724.34
2023-03-19T14:35:58.272Z,100723.53
2023-03-19T14:39:09.063Z,100720.06
2023-03-19T14:42:47.579Z,100720.19
2023-03-19T14:46:22.920Z,100718.25
2023-03-19T14:49:58.461Z,100714.69
2023-03-19T14:53:18.673Z,100714.53
2023-03-19T14:56:31.749Z,100721.16
2023-03-19T14:59:40.434Z,100729.00
2023-03-19T15:02:47.374Z,100727.06
2023-03-19T15:05:56.526Z,100731.81
2023-03-19T15:09:01.371Z,100729.13
2023-03-19T15:12:04.570Z,100729.53
2023-03-19T15:15:39.315Z,100725.53
2023-03-19T15:18:42.350Z,100716.28
2023-03-19T15:21:50.150Z,100718.50
2023-03-19T15:24:54.465Z,100714.47
2023-03-19T15:28:14.965Z,100712.59
2023-03-19T15:31:31.691Z,100717.69
2023-03-19T15:34:45.345Z,100726.91
2023-03-19T15:37:54.323Z,100719.56
2023-03-19T15:40:57.885Z,100719.66
2023-03-19T15:44:04.704Z,100721.47
2023-03-19T15:47:14.102Z,100732.13
2023-03-19T15:50:19.624Z,100728.75
2023-03-19T15:53:26.494Z,100728.41
2023-03-19T15:56:30.342Z,100725.28
2023-03-19T15:59:33.925Z,100730.47
2023-03-19T16:02:41.713Z,100728.28
2023-03-19T16:05:45.040Z,100730.31
2023-03-19T16:08:51.046Z,100740.88
2023-03-19T16:11:55.206Z,100736.25
2023-03-19T16:14:57.942Z,100732.53
2023-03-19T16:18:15.705Z,100734.56
2023-03-19T16:21:36.316Z,100734.66
2023-03-19T16:24:42.804Z,100739.25
2023-03-19T16:27:46.866Z,100744.81
2023-03-19T16:30:52.035Z,100740.97
2023-03-19T16:33:57.226Z,100748.75
2023-03-19T16:37:01.265Z,100747.31
2023-03-19T16:40:13.422Z,100749.56
2023-03-19T16:43:18.894Z,100755.16
2023-03-19T16:46:28.597Z,100759.72
2023-03-19T16:49:31.986Z,100758.34
2023-03-19T16:52:36.670Z,100756.66
2023-03-19T16:55:40.078Z,100758.34
2023-03-19T16:58:45.209Z,100763.00
2023-03-19T17:01:48.474Z,100769.59
2023-03-19T17:04:51.638Z,100773.34
2023-03-19T17:07:58.100Z,100773.44
2023-03-19T17:11:01.485Z,100774.03
2023-03-19T17:14:07.411Z,100783.25
2023-03-19T17:17:19.571Z,100782.31
2023-03-19T17:20:36.208Z,100792.44
2023-03-19T17:23:39.395Z,100792.09
2023-03-19T17:26:42.688Z,100788.16
2023-03-19T17:29:46.030Z,100785.34
2023-03-19T17:32:49.980Z,100778.84
2023-03-19T17:35:54.891Z,100781.44
2023-03-19T17:38:58.325Z,100783.28
2023-03-19T17:42:01.582Z,100781.53
2023-03-19T17:45:07.040Z,100785.97
2023-03-19T17:48:24.094Z,100791.19
2023-03-19T17:51:27.381Z,100788.75
2023-03-19T17:54:31.960Z,100793.38
2023-03-19T17:57:35.306Z,100798.63
2023-03-19T18:00:38.934Z,100805.34
2023-03-19T18:03:42.523Z,100801.72
2023-03-19T18:06:54.211Z,100803.25
2023-03-19T18:09:57.291Z,100809.16
2023-03-19T18:13:00.942Z,100809.03
2023-03-19T18:16:12.128Z,100811.47
2023-03-19T18:19:23.717Z,100812.97
2023-03-19T18:22:27.524Z,100810.16
2023-03-19T18:25:32.498Z,100816.78
2023-03-19T18:28:36.119Z,100807.38
2023-03-19T18:31:41.537Z,100809.88
2023-03-19T18:34:44.758Z,100813.03
2023-03-19T18:37:50.954Z,100805.09
2023-03-19T18:40:55.079Z,100809.03
2023-03-19T18:43:58.162Z,100807.66
2023-03-19T18:47:01.164Z,100812.84
2023-03-19T18:50:20.400Z,100814.19
2023-03-19T18:53:24.016Z,100829.38
2023-03-19T18:56:35.012Z,100817.78
2023-03-19T18:59:38.313Z,100817.88
2023-03-19T19:02:41.715Z,100819.19
2023-03-19T19:05:46.366Z,100824.75
2023-03-19T19:08:50.176Z,100826.84
2023-03-19T19:11:54.484Z,100822.78
2023-03-19T19:15:05.254Z,100826.56
2023-03-19T19:18:34.678Z,100838.94
2023-03-19T19:21:37.753Z,100833.38
2023-03-19T19:24:40.825Z,100838.56
2023-03-19T19:27:47.164Z,100831.00
2023-03-19T19:30:50.982Z,100831.06
2023-03-19T19:33:54.610Z,100832.78
2023-03-19T19:37:00.506Z,100839.59
2023-03-19T19:40:03.957Z,100836.94
2023-03-19T19:43:12.165Z,100839.22
2023-03-19T19:46:17.325Z,100840.03
2023-03-19T19:49:21.798Z,100849.34
2023-03-19T19:52:25.040Z,100843.91
2023-03-19T19:55:29.841Z,100840.88
2023-03-19T19:58:34.143Z,100851.13
2023-03-19T20:01:37.440Z,100845.41
2023-03-19T20:04:43.978Z,100852.00
2023-03-19T20:07:47.158Z,100840.00
2023-03-19T20:10:51.666Z,100844.94
2023-03-19T20:13:56.122Z,100849.28
2023-03-19T20:16:59.751Z,100849.47
2023-03-19T20:20:02.897Z,100852.13
2023-03-19T20:23:06.085Z,100854.63
2023-03-19T20:26:19.510Z,100855.25
2023-03-19T20:29:22.690Z,100848.69
2023-03-19T20:32:34.672Z,100848.09
2023-03-19T20:35:38.013Z,100851.34
2023-03-19T20:38:41.795Z,100854.47
2023-03-19T20:41:46.075Z,100853.06
2023-03-19T20:44:57.300Z,100845.06
2023-03-19T20:48:02.414Z,100846.53
2023-03-19T20:51:06.282Z,100852.72
2023-03-19T20:54:09.527Z,100852.56
2023-03-19T20:57:14.898Z,100858.31
2023-03-19T21:00:29.804Z,100846.47
2023-03-19T21:03:33.835Z,100842.00
2023-03-19T21:06:52.002Z,100838.53
2023-03-19T21:09:57.886Z,100843.28
2023-03-19T21:13:02.158Z,100835.88
2023-03-19T21:16:06.223Z,100831.44
2023-03-19T21:19:09.357Z,100826.75
2023-03-19T21:22:17.044Z,100827.59
2023-03-19T21:25:30.012Z,100820.47
2023-03-19T21:28:38.601Z,100822.97
2023-03-19T21:31:42.836Z,100822.31
2023-03-19T21:34:49.020Z,100828.66
2023-03-19T21:37:52.876Z,100834.91
2023-03-19T21:40:59.773Z,100833.66
2023-03-19T21:44:07.516Z,100836.63
2023-03-19T21:47:17.910Z,100843.09
2023-03-19T21:50:21.279Z,100835.75
2023-03-19T21:53:25.447Z,100829.84
2023-03-19T21:56:33.705Z,100833.53
2023-03-19T21:59:36.485Z,100828.59
2023-03-19T22:02:46.924Z,100833.09
2023-03-19T22:05:51.390Z,100836.16
2023-03-19T22:09:06.773Z,100835.38
2023-03-19T22:12:27.617Z,100838.03
2023-03-19T22:15:38.035Z,100836.59
2023-03-19T22:18:41.699Z,100848.47
2023-03-19T22:21:44.742Z,100849.69
2023-03-19T22:24:47.597Z,100845.00
2023-03-19T22:27:51.509Z,100843.53
2023-03-19T22:30:54.461Z,100838.41
2023-03-19T22:33:57.503Z,100842.47
2023-03-19T22:37:00.485Z,100841.25
2023-03-19T22:40:03.372Z,100839.03
2023-03-19T22:43:22.515Z,100839.88
2023-03-19T22:46:25.853Z,100842.78
2023-03-19T22:49:30.062Z,100822.63
2023-03-19T22:52:33.231Z,100831.06
2023-03-19T22:55:37.362Z,100823.91
2023-03-19T22:58:41.014Z,100823.66
2023-03-19T23:01:46.809Z,100824.34
2023-03-19T23:04:49.817Z,100825.38
2023-03-19T23:07:53.550Z,100831.56
2023-03-19T23:10:56.633Z,100822.97
2023-03-19T23:13:59.843Z,100839.00
2023-03-19T23:17:15.166Z,100838.13
2023-03-19T23:20:20.689Z,100828.66
2023-03-19T23:23:23.895Z,100828.66
2023-03-19T23:26:33.775Z,100828.47
2023-03-19T23:29:41.428Z,100829.50
2023-03-19T23:32:44.534Z,100823.34
2023-03-19T23:35:48.569Z,100829.09
2023-03-19T23:38:51.976Z,100840.00
2023-03-19T23:41:58.470Z,100826.38
2023-03-19T23:45:03.996Z,100839.09
2023-03-19T23:48:16.171Z,100836.88
2023-03-19T23:51:19.195Z,100839.53
2023-03-19T23:54:31.330Z,100832.28
2023-03-19T23:57:37.302Z,100836.84
